Terminal Aerodrome Forecast
Issued by NWS Louisville, KY

Home | Current Version | Previous Version | Text Only | Print | Product List | Glossary On
Versions: 1 2 3 4 5 6 7 8 9 10 11 12 13 14 15 16 17 18 19 20 21 22 23 24 25
000
FTUS43 KLMK 260527
TAFBWG
TAF
KBWG 260527Z 2606/2706 20003KT P6SM BKN150
     FM260800 20002KT 4SM BR SCT060
      TEMPO 2610/2612 1SM BR
     FM261400 21010KT P6SM BKN050
     FM261800 22012KT P6SM SCT050
     FM270000 17004KT P6SM SCT250=

USA.gov is the U.S. government's official web portal to all federal, state and local government web resources and services.